createdAt,value
2022-11-02T00:00:48.887Z,9.60
2022-11-02T00:03:16.972Z,9.50
2022-11-02T00:05:46.429Z,9.50
2022-11-02T00:08:14.454Z,9.50
2022-11-02T00:10:42.534Z,9.40
2022-11-02T00:13:10.644Z,9.40
2022-11-02T00:15:38.738Z,9.40
2022-11-02T00:18:10.100Z,9.30
2022-11-02T00:20:38.606Z,9.30
2022-11-02T00:23:10.801Z,9.40
2022-11-02T00:25:40.025Z,9.30
2022-11-02T00:28:08.372Z,9.40
2022-11-02T00:30:36.513Z,9.40
2022-11-02T00:33:04.867Z,9.40
2022-11-02T00:35:33.952Z,9.40
2022-11-02T00:38:02.399Z,9.40
2022-11-02T00:40:32.216Z,9.40
2022-11-02T00:43:00.305Z,9.40
2022-11-02T00:45:28.356Z,9.40
2022-11-02T00:47:56.505Z,9.40
2022-11-02T00:50:25.196Z,9.40
2022-11-02T00:52:53.338Z,9.40
2022-11-02T00:55:21.657Z,9.40
2022-11-02T00:57:51.449Z,9.40
2022-11-02T01:00:19.785Z,9.40
2022-11-02T01:02:47.973Z,9.40
2022-11-02T01:05:16.304Z,9.40
2022-11-02T01:07:44.347Z,9.40
2022-11-02T01:10:12.554Z,9.30
2022-11-02T01:12:40.715Z,9.30
2022-11-02T01:15:11.415Z,9.30
2022-11-02T01:17:39.493Z,9.30
2022-11-02T01:20:09.813Z,9.30
2022-11-02T01:22:37.914Z,9.30
2022-11-02T01:25:06.429Z,9.20
2022-11-02T01:27:34.560Z,9.20
2022-11-02T01:30:02.824Z,9.20
2022-11-02T01:32:32.441Z,9.20
2022-11-02T01:35:00.625Z,9.10
2022-11-02T01:37:28.740Z,9.10
2022-11-02T01:39:56.825Z,9.10
2022-11-02T01:42:28.088Z,9.10
2022-11-02T01:44:56.206Z,9.00
2022-11-02T01:47:27.107Z,9.00
2022-11-02T01:49:58.770Z,9.00
2022-11-02T01:52:30.416Z,9.00
2022-11-02T01:55:01.798Z,9.00
2022-11-02T01:57:30.038Z,9.00
2022-11-02T02:00:00.538Z,8.90
2022-11-02T02:02:28.989Z,8.90
2022-11-02T02:05:03.812Z,8.90
2022-11-02T02:07:32.116Z,8.90
2022-11-02T02:10:00.628Z,8.90
2022-11-02T02:12:28.821Z,8.90
2022-11-02T02:14:56.873Z,8.80
2022-11-02T02:17:42.080Z,8.80
2022-11-02T02:20:20.695Z,8.80
2022-11-02T02:23:26.348Z,8.70
2022-11-02T02:26:24.172Z,8.70
2022-11-02T02:28:54.925Z,8.70
2022-11-02T02:31:26.877Z,8.60
2022-11-02T02:33:59.958Z,8.60
2022-11-02T02:36:32.564Z,8.60
2022-11-02T02:39:03.631Z,8.60
2022-11-02T02:41:38.514Z,8.60
2022-11-02T02:44:09.638Z,8.50
2022-11-02T02:46:42.768Z,8.50
2022-11-02T02:49:14.262Z,8.50
2022-11-02T02:51:42.366Z,8.50
2022-11-02T02:54:12.300Z,8.50
2022-11-02T02:56:42.618Z,8.50
2022-11-02T02:59:17.529Z,8.50
2022-11-02T03:01:45.689Z,8.40
2022-11-02T03:04:14.077Z,8.40
2022-11-02T03:06:43.366Z,8.40
2022-11-02T03:09:15.199Z,8.40
2022-11-02T03:11:52.276Z,8.50
2022-11-02T03:14:33.558Z,8.40
2022-11-02T03:17:11.566Z,8.40
2022-11-02T03:19:46.322Z,8.40
2022-11-02T03:22:22.254Z,8.40
2022-11-02T03:24:56.178Z,8.40
2022-11-02T03:27:27.994Z,8.40
2022-11-02T03:30:00.377Z,8.40
2022-11-02T03:32:30.729Z,8.40
2022-11-02T03:35:00.293Z,8.40
2022-11-02T03:37:30.485Z,8.40
2022-11-02T03:40:03.071Z,8.30
2022-11-02T03:42:31.873Z,8.30
2022-11-02T03:45:03.867Z,8.30
2022-11-02T03:47:33.246Z,8.30
2022-11-02T03:50:02.150Z,8.30
2022-11-02T03:52:31.488Z,8.30
2022-11-02T03:55:04.766Z,8.30
2022-11-02T03:57:37.298Z,8.30
2022-11-02T04:00:12.489Z,8.30
2022-11-02T04:02:40.739Z,8.30
2022-11-02T04:05:09.807Z,8.30
2022-11-02T04:07:56.703Z,8.30
2022-11-02T04:10:26.637Z,8.30
2022-11-02T04:13:12.468Z,8.30
2022-11-02T04:15:41.927Z,8.30
2022-11-02T04:18:27.735Z,8.20
2022-11-02T04:20:55.846Z,8.30
2022-11-02T04:23:41.648Z,8.30
2022-11-02T04:26:09.885Z,8.20
2022-11-02T04:28:38.027Z,8.20
2022-11-02T04:31:07.578Z,8.20
2022-11-02T04:33:35.047Z,8.20
2022-11-02T04:36:03.513Z,8.20
2022-11-02T04:38:43.877Z,8.10
2022-11-02T04:41:31.038Z,8.10
2022-11-02T04:43:59.208Z,8.10
2022-11-02T04:46:30.468Z,8.10
2022-11-02T04:48:58.584Z,8.00
2022-11-02T04:51:28.114Z,8.00
2022-11-02T04:53:57.437Z,8.00
2022-11-02T04:56:25.614Z,8.00
2022-11-02T04:58:54.562Z,7.90
2022-11-02T05:01:23.406Z,7.90
2022-11-02T05:03:53.894Z,7.90
2022-11-02T05:06:22.803Z,7.90
2022-11-02T05:08:50.900Z,7.80
2022-11-02T05:11:19.052Z,7.80
2022-11-02T05:13:47.309Z,7.80
2022-11-02T05:16:17.205Z,7.80
2022-11-02T05:18:45.307Z,7.80
2022-11-02T05:21:14.878Z,7.80
2022-11-02T05:23:43.099Z,7.80
2022-11-02T05:26:12.476Z,7.80
2022-11-02T05:28:40.964Z,7.80
2022-11-02T05:31:09.060Z,7.80
2022-11-02T05:33:37.507Z,7.80
2022-11-02T05:36:06.405Z,7.90
2022-11-02T05:38:36.002Z,7.90
2022-11-02T05:41:04.140Z,7.90
2022-11-02T05:43:32.222Z,7.90
2022-11-02T05:46:02.992Z,7.90
2022-11-02T05:48:33.236Z,8.00
2022-11-02T05:51:02.564Z,8.00
2022-11-02T05:53:32.649Z,8.00
2022-11-02T05:56:02.641Z,8.00
2022-11-02T05:58:30.992Z,8.00
2022-11-02T06:01:00.455Z,8.00
2022-11-02T06:03:28.611Z,8.00
2022-11-02T06:05:59.912Z,8.00
2022-11-02T06:08:28.053Z,8.00
2022-11-02T06:10:56.245Z,8.00
2022-11-02T06:13:25.707Z,8.00
2022-11-02T06:15:53.745Z,7.90
2022-11-02T06:18:21.806Z,7.90
2022-11-02T06:20:49.884Z,7.90
2022-11-02T06:23:18.349Z,8.00
2022-11-02T06:25:52.733Z,8.00
2022-11-02T06:28:20.888Z,8.00
2022-11-02T06:30:50.385Z,8.00
2022-11-02T06:33:18.841Z,8.00
2022-11-02T06:35:47.343Z,8.00
2022-11-02T06:38:15.420Z,8.00
2022-11-02T06:40:43.546Z,8.10
2022-11-02T06:43:16.427Z,8.10
2022-11-02T06:45:46.377Z,8.10
2022-11-02T06:48:15.878Z,8.10
2022-11-02T06:50:43.940Z,8.20
2022-11-02T06:53:12.177Z,8.20
2022-11-02T06:55:40.273Z,8.20
2022-11-02T06:58:08.531Z,8.20
2022-11-02T07:00:36.779Z,8.30
2022-11-02T07:03:06.711Z,8.30
2022-11-02T07:05:37.587Z,8.40
2022-11-02T07:08:06.126Z,8.40
2022-11-02T07:10:35.341Z,8.50
2022-11-02T07:13:03.834Z,8.50
2022-11-02T07:15:32.211Z,8.50
2022-11-02T07:18:00.331Z,8.60
2022-11-02T07:20:30.410Z,8.60
2022-11-02T07:23:00.983Z,8.70
2022-11-02T07:25:32.137Z,8.70
2022-11-02T07:28:00.883Z,8.70
2022-11-02T07:30:29.212Z,8.80
2022-11-02T07:32:57.279Z,8.80
2022-11-02T07:35:25.630Z,8.90
2022-11-02T07:37:59.140Z,8.90
2022-11-02T07:40:28.469Z,9.00
2022-11-02T07:42:56.771Z,9.10
2022-11-02T07:45:25.052Z,9.20
2022-11-02T07:47:53.224Z,9.30
2022-11-02T07:50:22.447Z,9.40
2022-11-02T07:52:51.789Z,9.50
2022-11-02T07:55:22.151Z,9.60
2022-11-02T07:57:57.244Z,9.70
2022-11-02T08:00:25.454Z,9.90
2022-11-02T08:02:56.132Z,10.00
2022-11-02T08:05:24.344Z,10.10
2022-11-02T08:07:58.483Z,10.20
2022-11-02T08:10:28.079Z,10.40
2022-11-02T08:12:56.437Z,10.50
2022-11-02T08:15:24.557Z,10.70
2022-11-02T08:18:02.414Z,10.90
2022-11-02T08:20:31.094Z,11.10
2022-11-02T08:22:59.264Z,11.30
2022-11-02T08:25:28.742Z,11.40
2022-11-02T08:27:58.159Z,11.50
2022-11-02T08:30:26.365Z,11.60
2022-11-02T08:32:57.108Z,11.70
2022-11-02T08:35:25.497Z,11.80
2022-11-02T08:37:56.408Z,12.00
2022-11-02T08:40:24.602Z,12.10
2022-11-02T08:42:58.536Z,12.30
2022-11-02T08:45:26.596Z,12.40
2022-11-02T08:47:54.781Z,12.50
2022-11-02T08:50:23.422Z,12.60
2022-11-02T08:52:51.675Z,12.60
2022-11-02T08:55:20.113Z,12.70
2022-11-02T08:57:48.455Z,12.70
2022-11-02T09:00:18.666Z,12.70
2022-11-02T09:02:59.336Z,12.70
2022-11-02T09:05:27.617Z,12.70
2022-11-02T09:08:00.050Z,12.70
2022-11-02T09:10:28.949Z,12.70
2022-11-02T09:12:57.192Z,12.70
2022-11-02T09:15:26.684Z,12.80
2022-11-02T09:17:54.856Z,12.80
2022-11-02T09:20:23.478Z,12.90
2022-11-02T09:22:51.631Z,13.00
2022-11-02T09:25:19.826Z,13.00
2022-11-02T09:27:52.937Z,13.00
2022-11-02T09:30:23.704Z,13.00
2022-11-02T09:33:00.258Z,13.00
2022-11-02T09:35:29.200Z,13.00
2022-11-02T09:37:58.133Z,12.90
2022-11-02T09:40:27.615Z,13.00
2022-11-02T09:43:02.847Z,13.10
2022-11-02T09:45:32.418Z,13.20
2022-11-02T09:48:16.855Z,13.30
2022-11-02T09:50:49.614Z,13.40
2022-11-02T09:53:21.219Z,13.60
2022-11-02T09:55:53.157Z,13.70
2022-11-02T09:58:24.873Z,13.80
2022-11-02T10:00:57.977Z,13.90
2022-11-02T10:03:38.008Z,14.00
2022-11-02T10:06:09.086Z,14.10
2022-11-02T10:08:41.048Z,14.30
2022-11-02T10:11:21.825Z,14.40
2022-11-02T10:13:55.804Z,14.50
2022-11-02T10:16:27.596Z,14.60
2022-11-02T10:18:57.006Z,14.70
2022-11-02T10:21:27.225Z,14.80
2022-11-02T10:23:56.140Z,14.90
2022-11-02T10:26:25.920Z,15.00
2022-11-02T10:28:59.707Z,15.10
2022-11-02T10:31:31.148Z,15.10
2022-11-02T10:34:06.750Z,15.20
2022-11-02T10:36:43.985Z,15.20
2022-11-02T10:39:21.511Z,15.30
2022-11-02T10:42:03.179Z,15.40
2022-11-02T10:44:42.825Z,15.40
2022-11-02T10:47:14.988Z,15.50
2022-11-02T10:50:05.905Z,15.50
2022-11-02T10:52:39.372Z,15.60
2022-11-02T10:55:10.973Z,15.70
2022-11-02T10:57:39.395Z,15.70
2022-11-02T11:00:25.201Z,15.80
2022-11-02T11:03:11.179Z,15.80
2022-11-02T11:06:00.272Z,15.90
2022-11-02T11:08:37.122Z,16.00
2022-11-02T11:11:14.862Z,16.00
2022-11-02T11:16:39.905Z,16.10
2022-11-02T11:22:04.501Z,16.20
2022-11-02T11:24:35.195Z,16.30
2022-11-02T11:27:17.624Z,16.30
2022-11-02T11:29:55.617Z,16.40
2022-11-02T11:32:29.807Z,16.50
2022-11-02T11:35:01.158Z,16.70
2022-11-02T11:37:30.643Z,16.80
2022-11-02T11:40:01.281Z,16.80
2022-11-02T11:42:31.858Z,16.70
2022-11-02T11:45:02.934Z,16.70
2022-11-02T11:47:33.481Z,16.50
2022-11-02T11:50:11.762Z,16.40
2022-11-02T11:52:48.472Z,16.30
2022-11-02T11:55:23.142Z,16.20
2022-11-02T11:58:07.135Z,16.20
2022-11-02T12:00:35.718Z,16.10
2022-11-02T12:03:06.199Z,16.00
2022-11-02T12:05:42.621Z,16.00
2022-11-02T12:08:28.435Z,16.00
2022-11-02T12:11:08.945Z,16.00
2022-11-02T12:13:58.177Z,15.90
2022-11-02T12:16:34.006Z,15.80
2022-11-02T12:19:21.061Z,15.80
2022-11-02T12:21:58.015Z,15.70
2022-11-02T12:25:03.207Z,15.70
2022-11-02T12:27:38.798Z,15.60
2022-11-02T12:30:18.412Z,15.60
2022-11-02T12:33:15.082Z,15.60
2022-11-02T12:36:06.073Z,15.60
2022-11-02T12:38:53.765Z,15.60
2022-11-02T12:41:43.038Z,15.50
2022-11-02T12:44:23.101Z,15.50
2022-11-02T12:46:56.869Z,15.40
2022-11-02T12:49:36.522Z,15.40
2022-11-02T12:52:12.700Z,15.30
2022-11-02T12:54:43.302Z,15.20
2022-11-02T12:57:15.371Z,15.20
2022-11-02T12:59:44.239Z,15.10
2022-11-02T13:02:14.790Z,15.10
2022-11-02T13:04:47.842Z,15.00
2022-11-02T13:07:19.363Z,15.00
2022-11-02T13:09:53.345Z,15.00
2022-11-02T13:12:24.314Z,14.90
2022-11-02T13:14:54.270Z,14.90
2022-11-02T13:17:24.306Z,14.90
2022-11-02T13:19:54.833Z,14.90
2022-11-02T13:22:28.245Z,14.90
2022-11-02T13:24:58.540Z,14.90
2022-11-02T13:27:36.346Z,14.90
2022-11-02T13:30:07.681Z,15.00
2022-11-02T13:32:37.881Z,15.00
2022-11-02T13:35:13.802Z,15.10
2022-11-02T13:37:44.021Z,15.10
2022-11-02T13:40:16.993Z,15.20
2022-11-02T13:43:18.128Z,15.20
2022-11-02T13:46:00.547Z,15.20
2022-11-02T13:48:49.317Z,15.20
2022-11-02T13:51:25.011Z,15.10
2022-11-02T13:53:55.760Z,15.10
2022-11-02T13:56:25.989Z,15.10
2022-11-02T13:59:03.291Z,15.10
2022-11-02T14:01:33.393Z,15.00
2022-11-02T14:04:05.746Z,15.00
2022-11-02T14:06:35.422Z,15.00
2022-11-02T14:09:05.187Z,15.00
2022-11-02T14:11:46.477Z,15.00
2022-11-02T14:14:24.080Z,14.90
2022-11-02T14:17:15.670Z,14.90
2022-11-02T14:19:53.641Z,14.90
2022-11-02T14:22:22.086Z,14.80
2022-11-02T14:25:15.723Z,14.80
2022-11-02T14:27:44.323Z,14.80
2022-11-02T14:30:45.620Z,14.70
2022-11-02T14:33:50.037Z,14.70
2022-11-02T14:36:33.153Z,14.70
2022-11-02T14:39:07.561Z,14.70
2022-11-02T14:42:09.094Z,14.70
2022-11-02T14:44:57.784Z,14.70
2022-11-02T14:47:30.425Z,14.70
2022-11-02T14:50:00.967Z,14.80
2022-11-02T14:52:29.830Z,14.80
2022-11-02T14:55:02.716Z,14.80
2022-11-02T14:57:32.818Z,14.80
2022-11-02T15:00:03.667Z,14.80
2022-11-02T15:02:37.362Z,14.80
2022-11-02T15:05:09.147Z,14.70
2022-11-02T15:07:41.195Z,14.50
2022-11-02T15:10:43.305Z,14.50
2022-11-02T15:13:35.314Z,14.40
2022-11-02T15:16:25.908Z,14.20
2022-11-02T15:18:56.005Z,14.10
2022-11-02T15:21:28.788Z,14.00
2022-11-02T15:24:13.904Z,14.00
2022-11-02T15:26:52.733Z,13.90
2022-11-02T15:29:36.462Z,13.90
2022-11-02T15:32:06.859Z,13.80
2022-11-02T15:34:42.045Z,13.80
2022-11-02T15:37:13.664Z,13.70
2022-11-02T15:39:41.765Z,13.70
2022-11-02T15:42:17.267Z,13.60
2022-11-02T15:45:26.963Z,13.60
2022-11-02T15:48:12.511Z,13.40
2022-11-02T15:50:50.070Z,13.40
2022-11-02T15:53:28.393Z,13.30
2022-11-02T15:56:08.417Z,13.30
2022-11-02T15:58:45.417Z,13.30
2022-11-02T16:01:19.672Z,13.20
2022-11-02T16:03:48.694Z,13.10
2022-11-02T16:06:25.290Z,13.00
2022-11-02T16:08:53.389Z,13.00
2022-11-02T16:11:21.611Z,13.00
2022-11-02T16:14:08.043Z,12.90
2022-11-02T16:16:47.845Z,12.80
2022-11-02T16:19:20.295Z,12.70
2022-11-02T16:21:49.867Z,12.70
2022-11-02T16:24:18.137Z,12.60
2022-11-02T16:26:46.462Z,12.50
2022-11-02T16:29:23.834Z,12.50
2022-11-02T16:31:52.562Z,12.40
2022-11-02T16:34:22.556Z,12.30
2022-11-02T16:36:52.054Z,12.20
2022-11-02T16:39:23.280Z,12.10
2022-11-02T16:41:52.596Z,12.10
2022-11-02T16:44:24.953Z,12.00
2022-11-02T16:46:55.977Z,11.90
2022-11-02T16:49:24.520Z,11.90
2022-11-02T16:51:55.222Z,11.80
2022-11-02T16:54:40.809Z,11.80
2022-11-02T16:57:14.389Z,11.70
2022-11-02T16:59:50.997Z,11.60
2022-11-02T17:02:19.160Z,11.60
2022-11-02T17:04:47.668Z,11.50
2022-11-02T17:07:21.899Z,11.50
2022-11-02T17:09:52.024Z,11.40
2022-11-02T17:12:20.154Z,11.40
2022-11-02T17:14:48.809Z,11.40
2022-11-02T17:17:39.350Z,11.30
2022-11-02T17:20:24.451Z,11.20
2022-11-02T17:22:56.963Z,11.20
2022-11-02T17:25:26.880Z,11.20
2022-11-02T17:27:55.967Z,11.10
2022-11-02T17:30:44.463Z,11.10
2022-11-02T17:33:23.444Z,11.10
2022-11-02T17:35:52.468Z,11.10
2022-11-02T17:38:25.315Z,11.10
2022-11-02T17:40:53.788Z,11.00
2022-11-02T17:43:21.191Z,11.00
2022-11-02T17:45:55.892Z,11.00
2022-11-02T17:48:24.514Z,10.90
2022-11-02T17:50:54.635Z,10.90
2022-11-02T17:53:24.224Z,10.80
2022-11-02T17:55:52.320Z,10.70
2022-11-02T17:58:20.422Z,10.70
2022-11-02T18:00:48.542Z,10.60
2022-11-02T18:03:19.392Z,10.50
2022-11-02T18:05:50.160Z,10.40
2022-11-02T18:08:20.477Z,10.40
2022-11-02T18:10:51.884Z,10.30
2022-11-02T18:13:21.026Z,10.30
2022-11-02T18:15:49.222Z,10.20
2022-11-02T18:18:17.320Z,10.10
2022-11-02T18:20:45.798Z,10.10
2022-11-02T18:23:16.041Z,10.00
2022-11-02T18:25:44.167Z,9.90
2022-11-02T18:28:13.952Z,9.90
2022-11-02T18:30:44.071Z,9.80
2022-11-02T18:33:13.644Z,9.80
2022-11-02T18:35:43.267Z,9.80
2022-11-02T18:38:11.834Z,9.70
2022-11-02T18:40:39.935Z,9.60
2022-11-02T18:43:08.444Z,9.60
2022-11-02T18:45:38.220Z,9.60
2022-11-02T18:48:07.325Z,9.60
2022-11-02T18:50:35.527Z,9.50
2022-11-02T18:53:03.659Z,9.40
2022-11-02T18:55:31.772Z,9.40
2022-11-02T18:57:59.885Z,9.40
2022-11-02T19:00:27.979Z,9.30
2022-11-02T19:02:57.460Z,9.30
2022-11-02T19:05:43.248Z,9.30
2022-11-02T19:08:28.874Z,9.30
2022-11-02T19:10:56.992Z,9.20
2022-11-02T19:13:25.103Z,9.20
2022-11-02T19:15:53.193Z,9.20
2022-11-02T19:18:22.625Z,9.10
2022-11-02T19:20:50.714Z,9.10
2022-11-02T19:23:18.801Z,9.10
2022-11-02T19:25:51.924Z,9.00
2022-11-02T19:28:20.036Z,9.00
2022-11-02T19:30:48.115Z,8.90
2022-11-02T19:33:16.251Z,8.90
2022-11-02T19:35:57.120Z,8.90
2022-11-02T19:38:25.268Z,8.80
2022-11-02T19:41:02.417Z,8.80
2022-11-02T19:43:30.534Z,8.70
2022-11-02T19:46:02.270Z,8.70
2022-11-02T19:48:31.391Z,8.70
2022-11-02T19:51:08.316Z,8.60
2022-11-02T19:53:36.551Z,8.60
2022-11-02T19:56:05.293Z,8.60
2022-11-02T19:58:33.422Z,8.50
2022-11-02T20:01:08.599Z,8.50
2022-11-02T20:03:36.923Z,8.50
2022-11-02T20:06:08.328Z,8.40
2022-11-02T20:08:36.530Z,8.40
2022-11-02T20:11:05.689Z,8.40
2022-11-02T20:13:34.630Z,8.30
2022-11-02T20:16:02.758Z,8.20
2022-11-02T20:18:30.882Z,8.20
2022-11-02T20:21:06.370Z,8.10
2022-11-02T20:23:34.467Z,8.10
2022-11-02T20:26:03.149Z,8.00
2022-11-02T20:28:31.489Z,8.00
2022-11-02T20:30:59.674Z,7.90
2022-11-02T20:33:27.753Z,7.90
2022-11-02T20:35:55.830Z,7.90
2022-11-02T20:38:25.274Z,7.90
2022-11-02T20:40:53.396Z,7.90
2022-11-02T20:43:21.484Z,7.90
2022-11-02T20:45:49.569Z,7.90
2022-11-02T20:48:17.929Z,7.90
2022-11-02T20:50:46.103Z,7.90
2022-11-02T20:53:14.346Z,7.90
2022-11-02T20:55:43.758Z,7.90
2022-11-02T20:58:11.945Z,7.90
2022-11-02T21:04:46.725Z,7.90
2022-11-02T21:07:14.817Z,7.90
2022-11-02T21:09:42.868Z,7.80
2022-11-02T21:12:31.786Z,7.80
2022-11-02T21:14:59.913Z,7.80
2022-11-02T21:17:28.055Z,7.80
2022-11-02T21:19:58.264Z,7.80
2022-11-02T21:22:43.280Z,8.00
2022-11-02T21:25:12.486Z,7.80
2022-11-02T21:27:42.263Z,7.80
2022-11-02T21:30:11.744Z,7.70
2022-11-02T21:32:40.194Z,7.70
2022-11-02T21:35:09.521Z,7.70
2022-11-02T21:37:37.635Z,7.80
2022-11-02T21:40:07.118Z,7.70
2022-11-02T21:42:35.222Z,7.70
2022-11-02T21:45:05.584Z,7.70
2022-11-02T21:47:35.078Z,7.60
2022-11-02T21:50:03.259Z,7.60
2022-11-02T21:52:31.325Z,7.50
2022-11-02T21:54:59.491Z,7.60
2022-11-02T21:57:27.572Z,7.60
2022-11-02T21:59:55.989Z,7.60
2022-11-02T22:02:24.660Z,7.50
2022-11-02T22:04:53.625Z,7.60
2022-11-02T22:07:21.813Z,7.60
2022-11-02T22:09:49.953Z,7.50
2022-11-02T22:12:35.754Z,7.50
2022-11-02T22:15:04.524Z,7.50
2022-11-02T22:17:49.002Z,7.50
2022-11-02T22:20:18.127Z,7.40
2022-11-02T22:22:46.645Z,7.40
2022-11-02T22:25:14.851Z,7.30
2022-11-02T22:27:42.980Z,7.20
2022-11-02T22:30:12.786Z,7.30
2022-11-02T22:32:42.237Z,7.20
2022-11-02T22:35:10.888Z,7.20
2022-11-02T22:37:56.872Z,7.20
2022-11-02T22:40:24.933Z,7.10
2022-11-02T22:42:55.949Z,7.10
2022-11-02T22:45:24.079Z,7.10
2022-11-02T22:47:53.533Z,7.00
2022-11-02T22:50:23.792Z,7.10
2022-11-02T22:52:56.026Z,7.10
2022-11-02T22:55:24.119Z,7.10
2022-11-02T22:57:59.659Z,7.00
2022-11-02T23:00:28.220Z,6.90
2022-11-02T23:02:57.606Z,6.90
2022-11-02T23:05:25.727Z,7.00
2022-11-02T23:07:53.896Z,6.90
2022-11-02T23:10:35.943Z,6.90
2022-11-02T23:13:04.421Z,6.90
2022-11-02T23:15:32.802Z,6.90
2022-11-02T23:18:02.226Z,6.90
2022-11-02T23:20:29.726Z,6.90
2022-11-02T23:23:17.975Z,6.90
2022-11-02T23:25:46.024Z,6.80
2022-11-02T23:28:31.373Z,6.90
2022-11-02T23:31:22.173Z,6.90
2022-11-02T23:33:51.657Z,6.80
2022-11-02T23:36:20.417Z,6.90
2022-11-02T23:39:21.396Z,6.90
2022-11-02T23:41:49.498Z,6.80
2022-11-02T23:44:19.016Z,6.80
2022-11-02T23:46:48.626Z,6.80
2022-11-02T23:49:19.275Z,6.70
2022-11-02T23:52:05.092Z,6.70
2022-11-02T23:54:50.659Z,6.70
2022-11-02T23:57:20.243Z,6.70
2022-11-02T23:59:48.329Z,6.70
